createdAt,value
2019-05-19T00:00:08.757Z,74.6
2019-05-19T00:15:09.102Z,74.6
2019-05-19T00:30:09.908Z,75.2
2019-05-19T00:45:10.007Z,75.4
2019-05-19T01:00:10.172Z,76.1
2019-05-19T01:15:10.215Z,77.2
2019-05-19T01:30:11.107Z,77.9
2019-05-19T01:45:12.316Z,78.4
2019-05-19T02:00:12.389Z,79
2019-05-19T02:15:12.409Z,80.8
2019-05-19T02:30:12.958Z,81
2019-05-19T02:45:13.220Z,83.6
2019-05-19T03:00:03.313Z,86.2
2019-05-19T03:15:04.839Z,85.1
2019-05-19T03:30:06.633Z,85.8
2019-05-19T03:45:06.687Z,85.5
2019-05-19T04:00:06.801Z,85.9
2019-05-19T04:15:06.769Z,86.5
2019-05-19T04:30:06.877Z,85.8
2019-05-19T04:45:08.327Z,85
2019-05-19T05:00:08.683Z,84.8
2019-05-19T05:15:08.631Z,82.6
2019-05-19T05:30:09.474Z,81.3
2019-05-19T05:45:10.825Z,79.4
2019-05-19T06:00:16.316Z,79.7
2019-05-19T06:15:03.154Z,76.4
2019-05-19T06:30:09.347Z,76.8
2019-05-19T06:45:06.510Z,74.6
2019-05-19T07:00:07.965Z,71.1
2019-05-19T07:15:10.832Z,67.9
2019-05-19T07:30:11.965Z,65.4
2019-05-19T07:45:05.272Z,63.1
2019-05-19T08:00:08.849Z,63
2019-05-19T08:15:03.367Z,63.3
2019-05-19T08:30:06.037Z,61.1
2019-05-19T08:45:09.154Z,59.6
2019-05-19T09:00:03.363Z,58.7
2019-05-19T09:15:11.924Z,57.9
2019-05-19T09:30:09.920Z,58.4
2019-05-19T09:45:10.225Z,55
2019-05-19T10:00:05.467Z,55.3
2019-05-19T10:15:08.936Z,55.4
2019-05-19T10:30:03.931Z,56.2
2019-05-19T10:45:05.269Z,52
2019-05-19T11:00:13.179Z,51.1
2019-05-19T11:15:09.773Z,55
2019-05-19T11:30:12.532Z,53.5
2019-05-19T11:45:03.967Z,52.5
2019-05-19T12:00:07.062Z,54.9
2019-05-19T12:15:10.894Z,55.4
2019-05-19T12:30:09.541Z,52.8
2019-05-19T12:45:04.805Z,53
2019-05-19T13:00:09.184Z,49.3
2019-05-19T13:15:07.748Z,54.5
2019-05-19T13:30:13.005Z,57.9
2019-05-19T13:45:10.329Z,66.4
2019-05-19T14:00:05.589Z,83.7
2019-05-19T14:15:04.601Z,79.7
2019-05-19T14:30:06.388Z,80.3
2019-05-19T14:45:11.118Z,79
2019-05-19T15:00:03.824Z,76.6
2019-05-19T15:15:10.792Z,78
2019-05-19T15:30:14.177Z,76.4
2019-05-19T15:45:11.957Z,76.3
2019-05-19T16:00:06.470Z,71.9
2019-05-19T16:15:06.473Z,71.9
2019-05-19T16:30:11.422Z,73.3
2019-05-19T16:45:10.569Z,72.4
2019-05-19T17:00:10.814Z,75.5
2019-05-19T17:15:06.910Z,75.1
2019-05-19T17:30:06.023Z,74.4
2019-05-19T17:45:08.870Z,72.7
2019-05-19T18:00:10.583Z,79.9
2019-05-19T18:15:11.957Z,80.3
2019-05-19T18:30:11.858Z,78.6
2019-05-19T18:45:05.570Z,75.8
2019-05-19T19:00:04.189Z,78.7
2019-05-19T19:15:06.782Z,79.5
2019-05-19T19:30:10.402Z,81.3
2019-05-19T19:45:11.444Z,81.2
2019-05-19T20:00:19.097Z,81.9
2019-05-19T20:15:12.326Z,80.5
2019-05-19T20:30:12.432Z,80.3
2019-05-19T20:45:12.784Z,79.1
2019-05-19T21:00:13.073Z,79
2019-05-19T21:15:03.309Z,79.4
2019-05-19T21:30:04.092Z,80.4
2019-05-19T21:45:04.429Z,81.6
2019-05-19T22:00:05.440Z,80.9
2019-05-19T22:15:08.228Z,80.6
2019-05-19T22:30:08.492Z,80.3
2019-05-19T22:45:08.324Z,79.8
2019-05-19T23:00:08.447Z,81.1
2019-05-19T23:15:08.711Z,81.6
2019-05-19T23:30:08.723Z,81.8
2019-05-19T23:45:10.558Z,81.9
